Orumieh, Iran
Current Conditions -  °F | °C
As of 7:00 AM on Monday 20 Oct 2014 (Local Time) from OITR Reporting Station
Moderate Snow Moderate Snow  
Wind Chill: 27°   Ceiling: 7000
Heat Index: 32°   Visibility: 0.43mi
Dew Point: 32°   Wind: 5mph
Humidity: 100%   Direction: 260°W
Pressure: 30.03"   Gusts: NA
Location:  37.53°N, 45.08°E
Report Text: OITR 200400Z 26004KT 0700 R21/P1300D TSSN FEW020 SCT025CBSCT030 OVC070 00/M00 Q1017
Loading
Personal Weather Stations






























Interactive Weather Map
Tropical Storm Tracking
New forecast layout! Learn more

10-Day Weather Forecast

Advertisements
Track Severe Weather on mobile